KCIU/CIU METAR and TAF weather

Enter ICAO airport designator
Station Type Date Time Source
KCIU METAR 2019/06/20 06:56 UTC NOAA

KCIU 200656Z AUTO 01007KT 10SM CLR 10/08 A2978 RMK AO2 SLP081 T01000078


Station Type Date Time Source
KCIU Decoded METAR 2019/06/20 06:56 UTC NOAA

Sault Ste Marie, Chippewa County International Airport, MI, United States (KCIU) 46-15N 084-28W
Jun 20, 2019 - 02:56 AM EDT / 2019.06.20 0656 UTC
Wind: from the N (010 degrees) at 8 MPH (7 KT):0
Visibility: 10 mile(s):0
Sky conditions: clear
Temperature: 50.0 F (10.0 C)
Dew Point: 46.0 F (7.8 C)
Relative Humidity: 86%
Pressure (altimeter): 29.78 in. Hg (1008 hPa)
ob: KCIU 200656Z AUTO 01007KT 10SM CLR 10/08 A2978 RMK AO2 SLP081 T01000078
cycle: 7

Station Type Date Time Source
KCIU TAF UTC NOAA

Error!

Example: see airport list